N602OM KIFP-
Flight info
| Callsign | N602OM |
|---|---|
| Flight time | N/A |
| Altitude | VFR |
| Route | |
| Aircraft | C172/L-DOV/C |
Departure
| Time | 2026-04-29 23:10 |
|---|---|
| Airport | Laughlin Bullhead International Airport (KIFP) |
Arrival
| Time | N/A |
|---|---|
| Airport | - |
| Time | Latitude | Longitude | Altitude | Speed | Heading |
|---|---|---|---|---|---|
| 2026-04-29 23:07 | 35.15852 | -114.55830 | 656 ft | 28 kts | 355° |
| 2026-04-29 23:07 | 35.16044 | -114.55843 | 649 ft | 26 kts | 358° |
| 2026-04-29 23:07 | 35.16220 | -114.55857 | 644 ft | 26 kts | 356° |
| 2026-04-29 23:08 | 35.16425 | -114.55875 | 641 ft | 33 kts | 354° |
| 2026-04-29 23:08 | 35.16607 | -114.55897 | 636 ft | 9 kts | 340° |
| 2026-04-29 23:08 | 35.16620 | -114.55927 | 640 ft | 0 kts | 260° |
| 2026-04-29 23:09 | 35.16616 | -114.55960 | 636 ft | 13 kts | 262° |
| 2026-04-29 23:09 | 35.16571 | -114.56018 | 637 ft | 10 kts | 175° |
| 2026-04-29 23:09 | 35.16328 | -114.55996 | 645 ft | 59 kts | 177° |
| 2026-04-29 23:09 | 35.15806 | -114.55952 | 713 ft | 84 kts | 175° |
| 2026-04-29 23:10 | 35.15243 | -114.55934 | 943 ft | 81 kts | 180° |
| 2026-04-29 23:10 | 35.14674 | -114.55897 | 1175 ft | 82 kts | 179° |
| 2026-04-29 23:10 | 35.14111 | -114.55877 | 1350 ft | 89 kts | 184° |
| 2026-04-29 23:10 | 35.13549 | -114.56115 | 1561 ft | 89 kts | 212° |
| 2026-04-29 23:11 | 35.13081 | -114.56574 | 1768 ft | 88 kts | 224° |
| 2026-04-29 23:11 | 35.12698 | -114.57131 | 1997 ft | 86 kts | 231° |
| 2026-04-29 23:11 | 35.12452 | -114.57845 | 2166 ft | 92 kts | 262° |
| 2026-04-29 23:11 | 35.12470 | -114.58621 | 2422 ft | 89 kts | 283° |
| 2026-04-29 23:12 | 35.12811 | -114.59251 | 2678 ft | 92 kts | 318° |
| 2026-04-29 23:12 | 35.13399 | -114.59613 | 2857 ft | 101 kts | 346° |
| 2026-04-29 23:12 | 35.14123 | -114.59691 | 2934 ft | 109 kts | 7° |
| 2026-04-29 23:12 | 35.14859 | -114.59620 | 3100 ft | 106 kts | 4° |
| 2026-04-29 23:13 | 35.15596 | -114.59557 | 3248 ft | 107 kts | 5° |
| 2026-04-29 23:13 | 35.16345 | -114.59504 | 3404 ft | 108 kts | 5° |
| 2026-04-29 23:13 | 35.17096 | -114.59454 | 3532 ft | 108 kts | 6° |
| 2026-04-29 23:13 | 35.17840 | -114.59409 | 3679 ft | 106 kts | 5° |
| 2026-04-29 23:14 | 35.18577 | -114.59362 | 3817 ft | 106 kts | 5° |
| 2026-04-29 23:14 | 35.19300 | -114.59317 | 3959 ft | 105 kts | 5° |
| 2026-04-29 23:14 | 35.20034 | -114.59272 | 4109 ft | 106 kts | 5° |
| 2026-04-29 23:14 | 35.20775 | -114.59223 | 4272 ft | 107 kts | 6° |
| 2026-04-29 23:15 | 35.21521 | -114.59171 | 4419 ft | 108 kts | 5° |
| 2026-04-29 23:15 | 35.22269 | -114.59118 | 4567 ft | 108 kts | 5° |
| 2026-04-29 23:15 | 35.23020 | -114.59065 | 4715 ft | 108 kts | 5° |
| 2026-04-29 23:15 | 35.23765 | -114.59013 | 4858 ft | 107 kts | 5° |
| 2026-04-29 23:16 | 35.24505 | -114.58957 | 4994 ft | 106 kts | 6° |
| 2026-04-29 23:16 | 35.25235 | -114.58903 | 5137 ft | 105 kts | 5° |